Date,TemperatureHighF,TemperatureAvgF,TemperatureLowF,DewpointHighF,DewpointAvgF,DewpointLowF,HumidityHigh,HumidityAvg,HumidityLow,PressureMaxIn,PressureMinIn,WindSpeedMaxMPH,WindSpeedAvgMPH,GustSpeedMaxMPH,PrecipitationSumIn
2013-5-1,46.2,29.1,21.0,20.4,16.6,8.8,92,62,30,30.51,30.19,14,5,14,0.04
2013-5-2,56.3,38.5,21.9,22.2,14.8,7.2,54,39,25,30.54,30.31,20,9,20,0.00
2013-5-3,61.2,45.8,32.5,37.2,22.5,12.9,95,44,24,30.31,30.19,8,5,8,0.04
2013-5-4,53.1,40.2,35.4,40.1,34.8,29.0,96,82,45,30.28,30.22,13,5,13,0.28
2013-5-5,59.2,45.3,32.4,36.3,30.4,24.4,96,59,33,30.28,30.10,17,8,17,0.24
2013-5-6,66.9,51.5,36.3,31.0,27.0,22.1,63,41,24,30.13,30.01,16,7,16,0.24
2013-5-7,73.9,57.9,43.2,33.6,26.7,22.1,45,31,19,30.10,30.01,21,7,21,0.24
2013-5-8,70.7,54.0,43.0,36.6,31.2,24.5,66,44,23,30.22,30.10,15,6,15,0.24
2013-5-9,70.2,53.3,42.3,35.2,28.8,20.4,56,40,23,30.25,30.19,25,8,25,0.24
2013-5-10,68.4,52.4,35.8,42.9,29.0,23.2,80,43,24,30.42,30.25,24,8,24,0.24
2013-5-11,74.7,54.2,34.0,39.6,28.9,23.6,75,41,21,30.42,30.22,24,6,24,0.24
2013-5-12,83.3,65.2,50.2,46.1,31.7,26.5,82,30,17,30.25,30.13,19,7,19,0.24
2013-5-13,87.1,68.3,52.0,43.5,31.7,22.1,68,27,11,30.19,29.95,26,8,26,0.24
2013-5-14,75.7,59.4,41.0,41.5,34.6,25.2,85,41,24,30.07,29.98,28,6,28,0.24
2013-5-15,72.1,54.0,36.9,43.5,27.3,18.6,87,38,23,30.13,29.98,16,6,17,0.24
2013-5-16,66.4,50.1,43.2,48.0,39.7,34.0,93,69,40,30.01,29.95,25,4,25,0.24
2013-5-17,56.3,47.6,41.4,47.1,43.0,36.9,96,85,55,30.01,29.95,11,3,11,0.24
2013-5-18,54.5,45.5,39.9,45.0,41.9,36.8,98,88,57,30.04,29.98,15,6,15,0.35
2013-5-19,45.0,42.0,38.5,42.2,38.4,35.1,94,87,74,30.16,30.04,10,8,15,1.50
2013-5-20,56.5,46.0,37.2,43.0,38.0,30.6,97,76,41,30.22,30.16,15,12,15,0.51
2013-5-21,67.8,48.7,32.9,37.3,29.4,21.8,98,54,23,30.22,30.01,11,9,11,0.24
2013-5-22,66.0,46.4,32.5,45.7,38.7,29.9,97,77,34,30.04,29.95,16,6,16,0.35
2013-5-23,59.9,50.0,44.8,54.0,45.1,36.8,98,84,61,30.01,29.89,17,5,17,0.24
2013-5-24,71.2,53.5,38.7,45.4,25.1,11.2,96,40,12,30.07,29.89,31,10,31,0.24
2013-5-25,68.4,53.9,41.5,37.8,28.5,17.9,68,39,24,30.07,29.98,22,7,22,0.24
2013-5-26,67.3,52.7,35.4,46.7,36.6,26.1,95,56,31,30.10,29.98,22,5,22,0.00
2013-5-27,67.1,51.3,40.8,46.7,36.1,24.0,95,60,25,30.01,29.92,28,5,28,0.00
2013-5-28,65.7,50.5,41.4,44.4,36.1,24.0,96,61,35,29.92,29.83,17,5,17,0.98
2013-5-29,47.5,43.3,40.3,42.7,39.5,36.7,95,87,73,29.89,29.80,17,6,17,1.10
2013-5-30,56.7,47.9,38.7,39.7,32.3,23.6,95,58,36,29.95,29.80,24,8,24,0.00
2013-5-31,57.6,47.8,40.8,40.7,29.2,23.2,95,51,36,30.28,29.92,32,12,32,0.00